Time;durP1;ratioP1;P1;durP2;ratioP2;P2;SDS_P1;SDS_P2;PMS_P1;PMS_P2;Temp;Humidity;BMP_temperature;BMP_pressure;BME280_temperature;BME280_humidity;BME280_pressure;Samples;Min_cycle;Max_cycle;Signal;HPM_P1;HPM_P2
2022/06/16 05:57:03;;;;;;;4.03;1.90;;;;;;;15.33;61.29;98452.21;1871535;76;22675;-58
2022/06/16 05:59:30;;;;;;;4.87;1.70;;;;;;;15.35;60.94;98445.98;1827903;78;20828;-64
2022/06/16 06:02:00;;;;;;;3.50;1.67;;;;;;;15.43;60.11;98451.16;1827677;78;21230;-67
2022/06/16 06:04:28;;;;;;;3.87;1.90;;;;;;;15.48;60.66;98451.05;1827534;78;20837;-64
2022/06/16 06:06:54;;;;;;;3.58;1.55;;;;;;;15.58;61.20;98444.04;1827746;78;20958;-68
2022/06/16 06:17:42;;;;;;;5.47;2.05;;;;;;;15.98;58.37;98445.61;1789362;80;21232;-61
2022/06/16 06:20:14;;;;;;;5.15;1.80;;;;;;;16.06;58.67;98443.47;1786668;80;21001;-64
2022/06/16 06:22:43;;;;;;;3.93;1.57;;;;;;;16.14;58.15;98442.70;1781494;78;21062;-66
2022/06/16 06:25:12;;;;;;;3.83;1.70;;;;;;;16.21;57.14;98443.03;1766136;80;21007;-67
2022/06/16 06:27:42;;;;;;;6.50;1.98;;;;;;;16.27;57.37;98445.81;1788972;80;21127;-66
2022/06/16 06:30:13;;;;;;;2.77;1.90;;;;;;;16.32;58.50;98448.95;1789161;80;20991;-67
2022/06/16 06:32:41;;;;;;;3.65;1.80;;;;;;;16.40;58.30;98446.80;1770372;78;20922;-65
2022/06/16 06:35:10;;;;;;;4.50;1.87;;;;;;;16.47;58.09;98448.47;1780273;80;21029;-60
2022/06/16 06:37:37;;;;;;;2.77;1.60;;;;;;;16.55;56.92;98450.97;1733732;80;21130;-59
2022/06/16 06:40:04;;;;;;;5.83;2.15;;;;;;;16.64;57.73;98445.01;1775498;80;22004;-58
2022/06/16 06:42:31;;;;;;;3.35;1.75;;;;;;;16.73;57.63;98446.60;1774998;80;21384;-65
2022/06/16 06:44:59;;;;;;;3.65;1.80;;;;;;;16.81;57.42;98444.46;1781048;80;21076;-65
2022/06/16 06:47:28;;;;;;;5.80;1.95;;;;;;;16.87;56.91;98443.72;1785967;80;21528;-66
2022/06/16 06:49:55;;;;;;;3.85;1.70;;;;;;;16.94;55.99;98430.50;1776510;80;20939;-61
2022/06/16 06:52:23;;;;;;;4.20;1.70;;;;;;;16.99;55.69;98433.84;1774391;80;20963;-66
2022/06/16 06:54:52;;;;;;;8.18;2.17;;;;;;;17.05;55.32;98433.13;1774989;80;20972;-65
2022/06/16 06:57:25;;;;;;;5.75;2.00;;;;;;;17.13;56.17;98427.44;1764708;81;21471;-67
2022/06/16 06:59:52;;;;;;;3.95;1.77;;;;;;;17.19;55.99;98422.11;1766551;80;20995;-65
2022/06/16 07:02:19;;;;;;;3.20;1.72;;;;;;;17.29;55.79;98427.19;1758422;80;21515;-61
2022/06/16 07:04:47;;;;;;;5.40;1.87;;;;;;;17.40;56.18;98423.80;1782544;80;21238;-62
2022/06/16 07:07:18;;;;;;;5.03;1.80;;;;;;;17.51;56.09;98423.70;1759713;81;21012;-61
2022/06/16 07:09:46;;;;;;;4.47;1.85;;;;;;;17.62;54.90;98423.57;1800460;78;20983;-59
2022/06/16 07:12:15;;;;;;;5.83;1.80;;;;;;;17.70;54.06;98427.36;1756978;80;21454;-57
2022/06/16 07:14:45;;;;;;;3.83;1.80;;;;;;;17.72;53.12;98421.06;1776530;79;21094;-64
2022/06/16 07:17:15;;;;;;;3.17;2.02;;;;;;;17.74;53.84;98416.11;1795068;79;21058;-61
2022/06/16 07:19:43;;;;;;;5.40;1.80;;;;;;;17.83;54.34;98423.63;1764193;81;21390;-60
2022/06/16 07:22:11;;;;;;;4.42;1.92;;;;;;;17.92;52.94;98414.11;1764084;80;21069;-64
2022/06/16 07:24:38;;;;;;;3.70;1.80;;;;;;;17.91;53.16;98417.93;1775241;80;21529;-63
2022/06/16 07:27:04;;;;;;;3.37;1.80;;;;;;;17.96;53.47;98415.84;1777015;80;21419;-65
2022/06/16 07:29:33;;;;;;;5.97;1.80;;;;;;;17.98;52.09;98408.72;1777489;80;20931;-62
2022/06/16 07:31:59;;;;;;;3.98;1.90;;;;;;;17.99;52.18;98406.26;1778948;80;21085;-59
2022/06/16 07:34:27;;;;;;;6.12;1.98;;;;;;;18.05;52.04;98407.65;1804957;79;20934;-60
2022/06/16 07:36:55;;;;;;;5.80;1.32;;;;;;;18.14;53.06;98401.60;1785790;80;20982;-63
2022/06/16 07:39:21;;;;;;;2.98;1.70;;;;;;;18.30;52.34;98405.34;1772379;79;21113;-63
2022/06/16 07:41:48;;;;;;;4.33;1.70;;;;;;;18.43;51.66;98408.34;1752568;80;21648;-59
2022/06/16 07:44:16;;;;;;;2.55;1.40;;;;;;;18.56;51.15;98404.58;1776916;80;21126;-60
2022/06/16 07:46:44;;;;;;;4.00;1.52;;;;;;;18.68;51.11;98403.28;1774539;80;21536;-60
2022/06/16 07:49:12;;;;;;;5.08;1.62;;;;;;;18.81;50.32;98398.71;1765245;80;20893;-60
2022/06/16 07:51:43;;;;;;;3.50;1.35;;;;;;;18.89;48.99;98401.33;1770099;80;20937;-59
2022/06/16 07:54:10;;;;;;;4.33;1.50;;;;;;;18.90;48.66;98400.22;1762892;80;21090;-62
2022/06/16 07:56:37;;;;;;;3.02;1.50;;;;;;;18.95;48.83;98401.37;1761362;81;21226;-57
2022/06/16 07:59:04;;;;;;;3.17;1.50;;;;;;;18.99;48.10;98394.13;1821114;78;20893;-62
2022/06/16 08:01:31;;;;;;;3.62;1.82;;;;;;;19.02;48.22;98395.39;1819376;78;20855;-60
2022/06/16 08:03:58;;;;;;;4.17;2.00;;;;;;;19.12;48.34;98395.73;1814370;78;21011;-65
2022/06/16 08:06:27;;;;;;;4.03;1.40;;;;;;;19.30;50.16;98395.55;1810268;77;21772;-63
2022/06/16 08:08:54;;;;;;;5.72;1.62;;;;;;;19.47;47.57;98392.67;1784489;78;21012;-63
2022/06/16 08:14:06;;;;;;;3.83;1.70;;;;;;;19.54;46.80;98390.99;1818584;78;28040;-63
2022/06/16 08:16:35;;;;;;;3.17;1.60;;;;;;;19.49;47.24;98391.77;1818561;78;21080;-60
2022/06/16 08:19:04;;;;;;;3.17;1.50;;;;;;;19.52;47.41;98395.17;1819599;77;21120;-62
2022/06/16 08:21:31;;;;;;;3.20;1.52;;;;;;;19.54;47.45;98401.06;1818939;78;20968;-61
2022/06/16 08:23:58;;;;;;;3.47;1.45;;;;;;;19.58;46.99;98400.59;1819970;78;21481;-66
2022/06/16 08:26:25;;;;;;;3.45;1.50;;;;;;;19.65;45.75;98394.84;1817791;78;21068;-64
2022/06/16 08:28:52;;;;;;;2.87;1.40;;;;;;;19.66;45.14;98393.72;1820342;77;21058;-59
2022/06/16 08:31:21;;;;;;;3.42;1.27;;;;;;;19.71;44.88;98388.03;1821753;78;22039;-61
2022/06/16 08:33:48;;;;;;;3.25;1.30;;;;;;;19.76;44.64;98379.66;1811401;78;20955;-65
2022/06/16 08:36:17;;;;;;;3.72;1.30;;;;;;;19.87;44.92;98388.72;1824300;77;21447;-64
2022/06/16 08:38:45;;;;;;;3.98;1.47;;;;;;;20.03;44.63;98389.04;1822226;77;21055;-64
2022/06/16 08:41:18;;;;;;;3.10;1.40;;;;;;;20.19;44.76;98391.27;1810762;77;21439;-66
2022/06/16 08:44:13;;;;;;;2.60;1.07;;;;;;;20.36;45.40;98389.69;1804154;77;21095;-66
2022/06/16 08:47:22;;;;;;;2.70;1.22;;;;;;;20.55;43.58;98387.70;1822730;77;21421;-64
2022/06/16 08:50:22;;;;;;;2.77;1.27;;;;;;;20.73;43.44;98387.63;1824813;77;20853;-60
2022/06/16 08:52:55;;;;;;;3.65;1.37;;;;;;;20.88;43.77;98391.53;1819935;77;20962;-68
2022/06/16 08:55:40;;;;;;;2.95;1.35;;;;;;;21.00;43.98;98386.03;1834477;77;20994;-70
2022/06/16 08:58:30;;;;;;;2.42;1.47;;;;;;;21.14;43.96;98386.44;1828478;77;21121;-62
2022/06/16 09:01:08;;;;;;;2.33;1.10;;;;;;;21.29;43.93;98382.92;1821000;77;20932;-65
2022/06/16 09:03:49;;;;;;;1.87;1.07;;;;;;;21.41;42.18;98386.93;1774127;79;21102;-66
2022/06/16 09:06:39;;;;;;;6.10;1.20;;;;;;;21.44;43.12;98384.87;1776494;80;20995;-61
2022/06/16 09:10:14;;;;;;;3.05;1.45;;;;;;;21.53;41.76;98377.87;1777749;80;20986;-65
2022/06/16 09:12:02;;;;;;;3.72;1.42;;;;;;;21.64;42.37;98383.03;1765140;80;21075;-62
2022/06/16 09:15:11;;;;;;;2.62;1.20;;;;;;;21.78;41.31;98379.28;1754000;80;20933;-63
2022/06/16 09:17:48;;;;;;;5.08;1.40;;;;;;;21.89;41.34;98384.44;1757990;80;20881;-64
2022/06/16 09:20:47;;;;;;;3.90;1.37;;;;;;;21.97;39.16;98388.91;1722907;82;21057;-66
2022/06/16 09:23:51;;;;;;;3.95;1.12;;;;;;;21.95;40.87;98378.14;1822248;77;20958;-59
2022/06/16 09:26:32;;;;;;;3.95;1.20;;;;;;;22.04;40.28;98376.80;1815870;78;21103;-67
2022/06/16 09:29:23;;;;;;;3.95;1.40;;;;;;;22.19;40.97;98375.16;1818623;77;21453;-67
2022/06/16 09:32:12;;;;;;;3.60;1.15;;;;;;;22.35;39.92;98369.10;1812627;77;21054;-63
2022/06/16 09:34:46;;;;;;;3.55;1.22;;;;;;;22.38;38.20;98370.52;1822941;77;20888;-65
2022/06/16 09:37:18;;;;;;;2.15;1.20;;;;;;;22.42;40.51;98370.61;1782016;80;20955;-67
2022/06/16 09:39:49;;;;;;;6.62;1.37;;;;;;;22.54;39.26;98373.17;1780605;79;21136;-61
2022/06/16 09:42:35;;;;;;;2.87;1.20;;;;;;;22.71;39.51;98370.05;1779603;79;21042;-64
2022/06/16 09:45:11;;;;;;;2.02;1.05;;;;;;;22.89;38.33;98370.41;1811020;77;20884;-62
2022/06/16 09:48:07;;;;;;;3.55;1.05;;;;;;;22.95;37.36;98364.85;1769849;80;20983;-68
2022/06/16 09:50:44;;;;;;;4.05;1.20;;;;;;;22.92;36.37;98361.47;1812680;77;20955;-61
2022/06/16 09:53:19;;;;;;;6.70;1.30;;;;;;;22.92;36.97;98365.56;1826189;77;20884;-63
2022/06/16 09:55:54;;;;;;;2.35;0.90;;;;;;;23.02;37.30;98359.52;1820666;77;21429;-69
2022/06/16 09:58:30;;;;;;;2.08;1.05;;;;;;;23.23;35.65;98351.70;1776734;79;20950;-66
2022/06/16 10:01:01;;;;;;;1.50;0.85;;;;;;;23.31;33.23;98364.34;1771738;79;20973;-61
2022/06/16 10:04:00;;;;;;;3.22;1.20;;;;;;;23.19;34.89;98356.89;1799361;79;21461;-60
2022/06/16 10:07:03;;;;;;;4.22;1.50;;;;;;;23.20;36.52;98355.16;1725622;83;21198;-61
2022/06/16 10:09:54;;;;;;;2.42;1.10;;;;;;;23.29;35.73;98359.83;1784337;79;21320;-61
2022/06/16 10:12:56;;;;;;;4.65;1.30;;;;;;;23.33;37.40;98358.50;1758605;79;20993;-64
2022/06/16 10:15:33;;;;;;;4.50;1.22;;;;;;;23.33;37.55;98362.60;1785854;79;21026;-67
2022/06/16 10:18:00;;;;;;;2.42;1.35;;;;;;;23.19;38.43;98369.19;1792228;79;21355;-64
2022/06/16 10:20:27;;;;;;;4.62;1.50;;;;;;;22.96;37.91;98369.17;1776777;80;21155;-62
2022/06/16 10:23:08;;;;;;;2.87;1.42;;;;;;;22.70;38.22;98367.12;1783455;80;21014;-65
2022/06/16 10:25:39;;;;;;;4.92;1.35;;;;;;;22.50;39.13;98365.50;1786709;79;21098;-67
2022/06/16 10:28:28;;;;;;;4.30;1.47;;;;;;;22.30;39.50;98367.41;1785017;80;20993;-67
2022/06/16 10:30:57;;;;;;;6.15;1.62;;;;;;;22.24;39.74;98362.03;1783497;80;21049;-61
2022/06/16 10:33:30;;;;;;;5.65;1.27;;;;;;;22.34;39.51;98356.59;1785599;80;21084;-66
2022/06/16 10:36:14;;;;;;;3.42;1.20;;;;;;;22.50;40.02;98357.31;1785861;79;20942;-61
2022/06/16 10:38:48;;;;;;;7.80;2.83;;;;;;;22.65;39.41;98359.22;1783840;79;20927;-66
2022/06/16 10:41:37;;;;;;;6.67;1.50;;;;;;;22.69;37.73;98358.70;1787957;79;21026;-67
2022/06/16 10:44:06;;;;;;;5.37;1.80;;;;;;;22.48;38.41;98356.88;1782736;80;21579;-63
2022/06/16 10:46:36;;;;;;;5.15;1.40;;;;;;;22.33;38.49;98353.06;1766799;80;21185;-70
2022/06/16 10:49:06;;;;;;;3.58;1.75;;;;;;;22.26;39.40;98344.73;1785846;79;21089;-63
2022/06/16 10:51:36;;;;;;;3.22;1.62;;;;;;;22.33;39.33;98351.70;1784281;79;20954;-67
2022/06/16 10:54:16;;;;;;;4.45;1.40;;;;;;;22.52;40.31;98357.73;1755866;80;21117;-68
2022/06/16 10:56:43;;;;;;;5.22;1.55;;;;;;;22.74;37.70;98372.06;1771745;79;21082;-67
2022/06/16 10:59:27;;;;;;;2.40;1.37;;;;;;;22.80;38.08;98369.84;1812503;78;21844;-65
2022/06/16 11:02:15;;;;;;;3.77;1.30;;;;;;;22.76;37.36;98362.14;1816282;79;20959;-69
2022/06/16 11:04:44;;;;;;;2.92;1.20;;;;;;;22.68;37.17;98362.57;1820893;78;21517;-64
2022/06/16 11:07:13;;;;;;;2.37;1.30;;;;;;;22.71;37.06;98364.59;1824152;78;21357;-64
2022/06/16 11:09:40;;;;;;;2.60;1.27;;;;;;;22.83;38.45;98360.34;1788617;79;20876;-66
2022/06/16 11:12:17;;;;;;;2.87;1.50;;;;;;;23.01;38.70;98356.59;1820307;78;21226;-63
2022/06/16 11:14:51;;;;;;;3.27;1.40;;;;;;;23.27;37.91;98351.78;1820550;78;20951;-65
2022/06/16 11:17:28;;;;;;;6.15;1.65;;;;;;;23.47;38.43;98353.30;1826602;78;20922;-63
2022/06/16 11:20:17;;;;;;;1.90;1.30;;;;;;;23.57;37.32;98345.86;1827094;78;20947;-68
2022/06/16 11:22:46;;;;;;;2.77;1.37;;;;;;;23.56;36.50;98353.84;1822532;78;21023;-65
2022/06/16 11:25:34;;;;;;;2.45;1.45;;;;;;;23.56;36.76;98353.84;1825130;78;21178;-68
2022/06/16 11:28:12;;;;;;;2.42;1.35;;;;;;;23.52;36.49;98350.27;1819998;78;21089;-66
2022/06/16 11:30:44;;;;;;;4.47;1.30;;;;;;;23.49;35.54;98347.69;1813950;78;21054;-65
2022/06/16 11:36:53;;;;;;;3.42;1.55;;;;;;;23.12;36.84;98343.33;1769032;79;21006;-62
2022/06/16 11:40:01;;;;;;;2.95;1.15;;;;;;;22.81;35.61;98345.47;1787593;79;21119;-64
2022/06/16 11:42:48;;;;;;;3.22;1.22;;;;;;;22.46;36.96;98338.15;1782597;79;20907;-63
2022/06/16 11:45:40;;;;;;;5.62;1.50;;;;;;;22.33;38.50;98344.08;1793168;79;21053;-67
2022/06/16 11:48:28;;;;;;;3.52;1.42;;;;;;;22.25;38.08;98343.17;1788322;80;20927;-63
2022/06/16 11:51:00;;;;;;;4.00;1.40;;;;;;;22.21;39.13;98345.01;1803199;79;20955;-63
2022/06/16 11:53:34;;;;;;;2.37;1.32;;;;;;;22.23;38.06;98340.58;1809490;79;21108;-60
2022/06/16 11:56:40;;;;;;;3.15;1.40;;;;;;;22.21;38.76;98342.88;1813049;78;21101;-64
2022/06/16 11:59:56;;;;;;;3.52;1.40;;;;;;;22.28;38.45;98337.58;1797311;79;21003;-63
2022/06/16 12:02:41;;;;;;;2.62;1.20;;;;;;;22.66;37.92;98341.67;1797948;79;20959;-67
2022/06/16 12:05:43;;;;;;;3.20;1.10;;;;;;;23.18;38.79;98334.81;1786195;79;21027;-68
2022/06/16 12:08:16;;;;;;;1.72;0.93;;;;;;;23.37;35.76;98337.51;1803179;79;20989;-67
2022/06/16 12:10:52;;;;;;;3.12;1.35;;;;;;;23.47;35.23;98334.17;1756976;81;20966;-65
2022/06/16 12:13:41;;;;;;;2.55;1.02;;;;;;;23.48;35.69;98330.30;1757370;81;20871;-67
2022/06/16 12:16:22;;;;;;;2.47;1.20;;;;;;;23.50;35.49;98325.25;1757474;81;21382;-67
2022/06/16 12:19:13;;;;;;;3.75;1.10;;;;;;;23.39;35.22;98325.66;1771286;80;21510;-67
2022/06/16 12:21:56;;;;;;;4.25;1.15;;;;;;;23.11;35.58;98317.16;1774209;80;20954;-61
2022/06/16 12:25:01;;;;;;;2.40;0.98;;;;;;;22.85;35.95;98321.17;1788660;80;21446;-61
2022/06/16 12:28:10;;;;;;;2.25;1.05;;;;;;;22.62;35.78;98318.98;1788525;80;21399;-66
2022/06/16 12:30:55;;;;;;;2.83;1.07;;;;;;;22.39;35.46;98314.81;1788540;80;20967;-61
2022/06/16 12:33:35;;;;;;;3.98;1.10;;;;;;;22.25;36.79;98326.00;1768711;80;21076;-64
2022/06/16 12:36:09;;;;;;;2.20;1.00;;;;;;;22.15;36.86;98325.20;1755227;81;21116;-63
2022/06/16 12:39:06;;;;;;;2.52;1.22;;;;;;;22.01;36.77;98319.44;1762762;80;21484;-64
2022/06/16 12:41:41;;;;;;;3.05;1.10;;;;;;;21.92;36.73;98317.48;1763140;80;20993;-62
2022/06/16 12:44:25;;;;;;;4.10;1.07;;;;;;;22.00;38.37;98323.33;1777475;80;21030;-60
2022/06/16 12:47:05;;;;;;;4.47;1.30;;;;;;;22.18;37.79;98320.40;1777205;80;21086;-67
2022/06/16 12:49:40;;;;;;;2.55;1.10;;;;;;;22.59;37.05;98311.47;1778374;80;21854;-61
2022/06/16 12:52:12;;;;;;;2.87;1.00;;;;;;;23.25;37.79;98304.91;1785061;80;21053;-62
2022/06/16 12:54:50;;;;;;;5.08;1.40;;;;;;;23.92;37.18;98301.27;1786276;80;21036;-59
2022/06/16 12:57:26;;;;;;;2.55;1.00;;;;;;;24.55;35.81;98299.92;1801548;79;21117;-65
2022/06/16 13:00:05;;;;;;;3.58;1.10;;;;;;;24.92;33.57;98297.99;1766698;81;21018;-61
2022/06/16 13:02:36;;;;;;;2.92;1.00;;;;;;;25.11;32.68;98295.63;1766116;81;21311;-61
2022/06/16 13:05:09;;;;;;;1.92;0.98;;;;;;;25.26;32.28;98291.84;1764233;81;20983;-62
2022/06/16 13:07:33;;;;;;;1.37;0.82;;;;;;;25.54;32.06;98295.41;1730053;82;20933;-67
2022/06/16 13:10:01;;;;;;;1.45;0.80;;;;;;;25.86;30.79;98292.89;1710543;83;20898;-68
2022/06/16 13:12:33;;;;;;;2.65;0.90;;;;;;;26.08;30.45;98284.95;1686763;81;21480;-59
2022/06/16 13:15:09;;;;;;;1.87;0.70;;;;;;;26.24;29.30;98288.19;1741690;81;21191;-62
2022/06/16 13:17:40;;;;;;;1.92;1.10;;;;;;;26.18;30.45;98280.94;1760720;81;21511;-67
2022/06/16 13:20:10;;;;;;;2.90;1.00;;;;;;;26.34;30.32;98276.47;1759975;81;21393;-64
2022/06/16 13:22:41;;;;;;;2.27;0.88;;;;;;;26.58;31.14;98281.27;1711630;83;20986;-65
2022/06/16 13:25:16;;;;;;;1.45;0.85;;;;;;;26.83;30.33;98278.01;1729372;83;21079;-68
2022/06/16 13:27:55;;;;;;;3.37;0.88;;;;;;;27.09;28.64;98278.23;1727473;82;21133;-62
2022/06/16 13:30:32;;;;;;;3.12;0.90;;;;;;;27.33;27.89;98277.45;1729163;83;21095;-68
2022/06/16 13:33:09;;;;;;;1.70;0.70;;;;;;;27.28;28.02;98277.05;1727307;83;21523;-63
2022/06/16 13:35:46;;;;;;;2.02;0.88;;;;;;;27.14;27.97;98277.84;1729812;83;21043;-66
2022/06/16 13:38:19;;;;;;;1.00;0.57;;;;;;;27.14;28.49;98260.77;1730160;83;21031;-72
2022/06/16 13:40:46;;;;;;;1.70;0.75;;;;;;;27.46;30.06;98267.64;1729537;83;21131;-64
2022/06/16 13:43:15;;;;;;;4.35;0.80;;;;;;;27.92;28.70;98266.77;1729479;83;21055;-62
2022/06/16 13:45:58;;;;;;;1.00;0.70;;;;;;;27.86;28.09;98266.41;1729653;83;21024;-62
2022/06/16 13:48:39;;;;;;;1.52;0.70;;;;;;;27.66;29.21;98268.81;1729984;83;21472;-59
2022/06/16 13:51:28;;;;;;;1.92;0.95;;;;;;;27.30;28.21;98267.85;1729976;83;20949;-61
2022/06/16 13:53:55;;;;;;;2.17;1.00;;;;;;;27.18;29.40;98261.36;1726108;82;21252;-61
2022/06/16 13:56:38;;;;;;;1.55;0.70;;;;;;;27.30;27.95;98260.97;1687228;83;20945;-62
2022/06/16 13:59:14;;;;;;;1.82;0.80;;;;;;;27.30;28.59;98249.97;1734540;82;20916;-65
2022/06/16 14:02:09;;;;;;;1.82;0.80;;;;;;;27.30;29.10;98242.48;1735789;82;20952;-65
2022/06/16 14:05:05;;;;;;;1.92;0.95;;;;;;;27.18;28.04;98243.50;1735826;82;20940;-64
2022/06/16 14:07:49;;;;;;;1.82;0.72;;;;;;;26.85;28.96;98241.30;1733367;82;21132;-70
